Baudette International Airport Baudette US
ICAO: KBDE
IATA: BDE
Category: Medium
Scheduled Services: No

Elevation: 1086 ft
TransAlt. 18000 ft.

Airport Communications:
ASOS:126.775
PRINCETON RDO:122.4
CTAF/UNICOM:122.8

KBDE Zoom In..

If you have problems with the map follow the link
https://www.worldairports.se/pages/airport.php?
ICAO=KBDE

Runways:

(A) RW 12 length 5499 ft width 100 ft
---- / hdg 117

(B) RW 30 length 5499 ft width 100 ft
ILS 108.30 / hdg 297

Location; KBDE
Day. 22 / Time. 11.53 Zulu
* Altimeter: 29.69
* Temperature: -07° c. -19.4°f.
* Wind from: 170° Speed 05 kn.
Dewpoint: -09° c.
Visibility: 9 Statute Miles.
Clouds: Scattered 1300 ft.

KBDE 221153Z AUTO 17005KT 9SM SCT013 M07/M09 A2969 RMK AO2 SLP073 T10721094 11050 21072 53005


Wind From 170°
Speed 05 kn.

 
 
jpsmedia worldairports.se 2020   terms of use